createdAt,value
2023-05-10T00:02:19.444Z,7.03
2023-05-10T00:04:48.460Z,7.07
2023-05-10T00:07:19.532Z,6.20
2023-05-10T00:09:48.494Z,6.63
2023-05-10T00:12:17.468Z,6.68
2023-05-10T00:14:46.535Z,6.55
2023-05-10T00:17:15.655Z,7.40
2023-05-10T00:19:44.823Z,6.55
2023-05-10T00:22:13.928Z,6.93
2023-05-10T00:24:43.165Z,7.13
2023-05-10T00:27:12.169Z,5.90
2023-05-10T00:29:41.168Z,6.45
2023-05-10T00:32:10.226Z,7.10
2023-05-10T00:34:42.252Z,6.95
2023-05-10T00:37:11.974Z,6.97
2023-05-10T00:39:40.943Z,6.55
2023-05-10T00:42:12.706Z,6.93
2023-05-10T00:44:44.697Z,7.30
2023-05-10T00:47:14.096Z,6.43
2023-05-10T00:49:43.984Z,6.70
2023-05-10T00:52:25.797Z,8.13
2023-05-10T00:54:58.199Z,6.15
2023-05-10T00:57:27.805Z,5.57
2023-05-10T00:59:56.877Z,7.78
2023-05-10T01:02:26.765Z,7.07
2023-05-10T01:04:56.461Z,7.22
2023-05-10T01:07:25.585Z,6.45
2023-05-10T01:09:54.674Z,6.30
2023-05-10T01:12:23.824Z,5.78
2023-05-10T01:14:52.811Z,6.05
2023-05-10T01:17:22.315Z,7.78
2023-05-10T01:19:51.931Z,5.65
2023-05-10T01:22:38.945Z,6.25
2023-05-10T01:25:38.625Z,5.15
2023-05-10T01:28:07.600Z,6.25
2023-05-10T01:31:11.781Z,6.18
2023-05-10T01:34:19.800Z,5.88
2023-05-10T01:37:05.318Z,6.18
2023-05-10T01:39:40.222Z,9.02
2023-05-10T01:42:25.803Z,12.10
2023-05-10T01:45:16.145Z,8.70
2023-05-10T01:47:54.701Z,8.40
2023-05-10T01:50:31.123Z,8.55
2023-05-10T01:53:02.142Z,9.35
2023-05-10T01:55:34.652Z,9.27
2023-05-10T01:58:12.375Z,8.07
2023-05-10T02:00:45.716Z,5.80
2023-05-10T02:03:16.685Z,10.90
2023-05-10T02:05:48.625Z,7.68
2023-05-10T02:08:20.411Z,9.05
2023-05-10T02:10:51.104Z,6.93
2023-05-10T02:13:22.082Z,8.68
2023-05-10T02:15:53.182Z,6.95
2023-05-10T02:18:24.440Z,6.55
2023-05-10T02:20:55.124Z,6.63
2023-05-10T02:23:26.016Z,6.25
2023-05-10T02:25:57.787Z,6.50
2023-05-10T02:28:28.581Z,6.30
2023-05-10T02:30:58.559Z,7.72
2023-05-10T02:33:28.995Z,7.03
2023-05-10T02:35:58.714Z,5.90
2023-05-10T02:38:29.712Z,6.05
2023-05-10T02:40:59.785Z,7.63
2023-05-10T02:43:31.483Z,7.93
2023-05-10T02:46:00.733Z,9.57
2023-05-10T02:48:30.199Z,6.25
2023-05-10T02:51:07.249Z,5.38
2023-05-10T02:53:40.472Z,5.72
2023-05-10T02:56:35.250Z,6.30
2023-05-10T02:59:04.593Z,6.88
2023-05-10T03:01:33.617Z,6.15
2023-05-10T03:04:03.128Z,5.70
2023-05-10T03:06:32.125Z,5.47
2023-05-10T03:09:01.298Z,6.30
2023-05-10T03:11:57.639Z,5.70
2023-05-10T03:15:03.682Z,5.35
2023-05-10T03:17:59.691Z,4.88
2023-05-10T03:20:59.137Z,5.50
2023-05-10T03:23:52.869Z,4.80
2023-05-10T03:26:29.198Z,5.47
2023-05-10T03:29:01.208Z,6.07
2023-05-10T03:31:30.555Z,6.47
2023-05-10T03:34:03.459Z,5.88
2023-05-10T03:36:32.518Z,5.97
2023-05-10T03:39:01.893Z,4.75
2023-05-10T03:41:31.589Z,5.68
2023-05-10T03:44:00.584Z,8.68
2023-05-10T03:46:29.603Z,7.03
2023-05-10T03:48:58.724Z,5.80
2023-05-10T03:51:30.352Z,6.32
2023-05-10T03:53:59.457Z,6.00
2023-05-10T03:56:28.419Z,6.88
2023-05-10T03:58:57.317Z,6.90
2023-05-10T04:01:26.382Z,5.43
2023-05-10T04:03:55.503Z,5.43
2023-05-10T04:06:24.634Z,6.22
2023-05-10T04:08:53.723Z,6.00
2023-05-10T04:11:24.158Z,7.55
2023-05-10T04:13:53.292Z,7.47
2023-05-10T04:16:22.649Z,5.97
2023-05-10T04:18:51.720Z,6.20
2023-05-10T04:21:20.757Z,6.20
2023-05-10T04:23:53.435Z,6.80
2023-05-10T04:26:22.790Z,7.07
2023-05-10T04:28:51.764Z,6.05
2023-05-10T04:31:23.959Z,7.38
2023-05-10T04:33:53.100Z,7.53
2023-05-10T04:36:22.155Z,7.78
2023-05-10T04:38:51.175Z,7.93
2023-05-10T04:41:20.220Z,6.95
2023-05-10T04:43:51.319Z,6.13
2023-05-10T04:46:20.371Z,6.63
2023-05-10T04:48:51.759Z,7.90
2023-05-10T04:51:20.797Z,6.50
2023-05-10T04:54:01.604Z,8.52
2023-05-10T04:56:34.032Z,7.53
2023-05-10T04:59:03.069Z,6.82
2023-05-10T05:01:32.304Z,7.95
2023-05-10T05:04:01.571Z,8.52
2023-05-10T05:06:30.740Z,7.70
2023-05-10T05:08:59.702Z,8.52
2023-05-10T05:11:29.776Z,7.78
2023-05-10T05:14:01.083Z,8.27
2023-05-10T05:16:32.785Z,8.05
2023-05-10T05:19:03.412Z,8.00
2023-05-10T05:21:34.320Z,8.68
2023-05-10T05:24:04.064Z,8.20
2023-05-10T05:26:33.139Z,7.75
2023-05-10T05:29:02.127Z,7.57
2023-05-10T05:31:31.864Z,7.50
2023-05-10T05:34:01.004Z,6.82
2023-05-10T05:36:30.019Z,7.30
2023-05-10T05:38:59.333Z,7.28
2023-05-10T05:41:28.724Z,8.13
2023-05-10T05:43:57.670Z,8.35
2023-05-10T05:46:26.652Z,9.95
2023-05-10T05:48:55.591Z,9.93
2023-05-10T05:51:24.626Z,10.05
2023-05-10T05:53:53.680Z,7.93
2023-05-10T05:56:26.401Z,8.98
2023-05-10T05:58:55.502Z,8.57
2023-05-10T06:01:24.516Z,8.52
2023-05-10T06:03:53.679Z,9.15
2023-05-10T06:06:22.834Z,8.65
2023-05-10T06:08:52.389Z,7.93
2023-05-10T06:11:23.062Z,10.52
2023-05-10T06:13:52.562Z,11.93
2023-05-10T06:16:27.243Z,9.65
2023-05-10T06:19:02.484Z,7.75
2023-05-10T06:21:35.748Z,7.72
2023-05-10T06:24:05.111Z,7.97
2023-05-10T06:26:34.223Z,7.57
2023-05-10T06:29:03.493Z,7.95
2023-05-10T06:31:32.747Z,7.43
2023-05-10T06:34:01.763Z,8.10
2023-05-10T06:36:30.784Z,8.82
2023-05-10T06:38:59.822Z,8.40
2023-05-10T06:41:28.794Z,8.02
2023-05-10T06:44:00.420Z,8.30
2023-05-10T06:46:29.519Z,7.85
2023-05-10T06:48:58.529Z,8.88
2023-05-10T06:51:28.261Z,9.15
2023-05-10T06:53:57.307Z,8.48
2023-05-10T06:56:26.310Z,8.57
2023-05-10T06:58:55.341Z,8.73
2023-05-10T07:01:24.634Z,8.35
2023-05-10T07:03:54.291Z,9.30
2023-05-10T07:06:32.972Z,9.68
2023-05-10T07:09:03.230Z,10.70
2023-05-10T07:11:32.253Z,8.88
2023-05-10T07:14:01.803Z,8.45
2023-05-10T07:16:31.189Z,8.25
2023-05-10T07:19:00.220Z,8.40
2023-05-10T07:21:30.764Z,7.95
2023-05-10T07:23:59.956Z,8.75
2023-05-10T07:26:29.058Z,7.78
2023-05-10T07:28:58.027Z,8.50
2023-05-10T07:31:27.101Z,7.80
2023-05-10T07:33:56.211Z,7.78
2023-05-10T07:36:25.144Z,8.63
2023-05-10T07:38:54.824Z,9.07
2023-05-10T07:41:24.665Z,9.05
2023-05-10T07:43:53.646Z,7.53
2023-05-10T07:46:22.828Z,7.82
2023-05-10T07:48:51.858Z,8.40
2023-05-10T07:51:20.884Z,7.95
2023-05-10T07:53:49.868Z,8.23
2023-05-10T07:56:27.095Z,8.13
2023-05-10T07:58:57.410Z,7.82
2023-05-10T08:01:26.777Z,8.90
2023-05-10T08:03:55.862Z,8.20
2023-05-10T08:06:24.902Z,8.40
2023-05-10T08:08:55.709Z,8.48
2023-05-10T08:11:25.013Z,7.40
2023-05-10T08:13:55.073Z,8.43
2023-05-10T08:16:24.209Z,8.40
2023-05-10T08:18:53.999Z,8.27
2023-05-10T08:21:23.208Z,9.25
2023-05-10T08:23:52.170Z,7.93
2023-05-10T08:26:21.232Z,7.85
2023-05-10T08:28:50.248Z,8.25
2023-05-10T08:31:20.212Z,7.20
2023-05-10T08:33:49.277Z,8.10
2023-05-10T08:36:23.573Z,6.90
2023-05-10T08:38:57.212Z,7.60
2023-05-10T08:41:30.623Z,6.78
2023-05-10T08:44:00.484Z,7.72
2023-05-10T08:46:31.066Z,7.13
2023-05-10T08:49:04.020Z,6.70
2023-05-10T08:51:38.120Z,6.45
2023-05-10T08:54:07.917Z,7.00
2023-05-10T08:56:36.897Z,7.63
2023-05-10T08:59:06.007Z,7.32
2023-05-10T09:01:38.112Z,7.50
2023-05-10T09:04:07.320Z,7.03
2023-05-10T09:06:37.122Z,6.60
2023-05-10T09:09:06.295Z,7.90
2023-05-10T09:11:35.516Z,7.22
2023-05-10T09:14:11.648Z,7.85
2023-05-10T09:16:41.148Z,8.90
2023-05-10T09:19:11.738Z,7.93
2023-05-10T09:21:41.129Z,8.43
2023-05-10T09:24:11.120Z,8.27
2023-05-10T09:26:52.022Z,9.38
2023-05-10T09:29:21.246Z,9.13
2023-05-10T09:32:07.062Z,8.95
2023-05-10T09:34:37.826Z,8.95
2023-05-10T09:37:06.961Z,10.77
2023-05-10T09:39:37.732Z,9.45
2023-05-10T09:42:17.061Z,8.88
2023-05-10T09:44:50.624Z,8.38
2023-05-10T09:47:22.643Z,9.43
2023-05-10T09:49:55.601Z,9.15
2023-05-10T09:52:24.603Z,8.23
2023-05-10T09:54:57.348Z,8.82
2023-05-10T09:57:28.182Z,8.57
2023-05-10T09:59:57.388Z,8.60
2023-05-10T10:02:31.799Z,8.05
2023-05-10T10:05:03.639Z,8.70
2023-05-10T10:07:33.947Z,8.07
2023-05-10T10:10:03.087Z,7.45
2023-05-10T10:12:32.108Z,8.52
2023-05-10T10:15:03.467Z,10.65
2023-05-10T10:17:34.104Z,10.43
2023-05-10T10:20:05.261Z,11.07
2023-05-10T10:22:34.242Z,14.55
2023-05-10T10:25:03.539Z,8.52
2023-05-10T10:27:56.600Z,7.38
2023-05-10T10:30:44.320Z,7.65
2023-05-10T10:33:31.688Z,6.22
2023-05-10T10:36:06.074Z,7.80
2023-05-10T10:38:50.277Z,6.80
2023-05-10T10:41:36.787Z,6.93
2023-05-10T10:44:35.805Z,6.93
2023-05-10T10:47:13.579Z,9.90
2023-05-10T10:49:48.674Z,6.45
2023-05-10T10:52:20.277Z,6.90
2023-05-10T10:55:20.381Z,6.00
2023-05-10T10:58:02.778Z,6.15
2023-05-10T11:00:35.785Z,7.70
2023-05-10T11:03:19.425Z,6.80
2023-05-10T11:05:54.156Z,7.75
2023-05-10T11:08:30.379Z,6.40
2023-05-10T11:11:02.120Z,6.97
2023-05-10T11:13:44.236Z,7.45
2023-05-10T11:16:19.278Z,7.05
2023-05-10T11:19:12.988Z,6.60
2023-05-10T11:22:07.614Z,7.20
2023-05-10T11:24:38.058Z,8.02
2023-05-10T11:27:07.992Z,6.65
2023-05-10T11:29:36.978Z,7.00
2023-05-10T11:32:10.315Z,6.85
2023-05-10T11:34:39.288Z,8.38
2023-05-10T11:37:08.266Z,9.45
2023-05-10T11:39:37.246Z,7.75
2023-05-10T11:42:06.562Z,8.38
2023-05-10T11:44:35.910Z,7.72
2023-05-10T11:47:05.325Z,8.30
2023-05-10T11:49:34.507Z,7.43
2023-05-10T11:52:15.558Z,8.25
2023-05-10T11:55:04.879Z,7.63
2023-05-10T11:57:34.149Z,6.78
2023-05-10T12:00:03.877Z,7.57
2023-05-10T12:02:33.043Z,6.38
2023-05-10T12:05:02.596Z,6.32
2023-05-10T12:07:31.644Z,7.05
2023-05-10T12:10:19.622Z,6.53
2023-05-10T12:12:50.330Z,6.07
2023-05-10T12:15:27.195Z,5.90
2023-05-10T12:17:56.906Z,6.50
2023-05-10T12:20:27.300Z,6.65
2023-05-10T12:22:59.746Z,6.13
2023-05-10T12:25:33.859Z,7.07
2023-05-10T12:28:06.163Z,7.40
2023-05-10T12:30:36.813Z,7.63
2023-05-10T12:33:12.111Z,7.80
2023-05-10T12:35:51.502Z,7.30
2023-05-10T12:38:40.427Z,6.57
2023-05-10T12:41:11.580Z,6.78
2023-05-10T12:43:41.137Z,7.82
2023-05-10T12:46:15.063Z,7.88
2023-05-10T12:51:19.280Z,7.88
2023-05-10T12:53:50.135Z,8.80
2023-05-10T12:56:19.294Z,7.75
2023-05-10T12:58:50.989Z,6.53
2023-05-10T13:01:20.300Z,6.57
2023-05-10T13:03:49.552Z,6.72
2023-05-10T13:06:18.500Z,6.18
2023-05-10T13:08:47.437Z,9.20
2023-05-10T13:11:19.078Z,10.25
2023-05-10T13:13:48.132Z,8.85
2023-05-10T13:16:17.159Z,6.70
2023-05-10T13:18:46.210Z,8.30
2023-05-10T13:21:15.230Z,8.52
2023-05-10T13:23:44.200Z,7.15
2023-05-10T13:26:13.207Z,6.72
2023-05-10T13:28:42.834Z,6.43
2023-05-10T13:31:11.857Z,6.45
2023-05-10T13:33:40.899Z,6.40
2023-05-10T13:36:10.148Z,6.22
2023-05-10T13:38:39.877Z,6.38
2023-05-10T13:41:09.185Z,6.22
2023-05-10T13:43:38.627Z,6.35
2023-05-10T13:46:07.869Z,6.03
2023-05-10T13:48:39.232Z,5.32
2023-05-10T13:51:08.301Z,6.35
2023-05-10T13:53:37.325Z,5.85
2023-05-10T13:56:06.412Z,5.65
2023-05-10T13:58:35.369Z,6.03
2023-05-10T14:01:04.398Z,6.03
2023-05-10T14:03:34.764Z,5.70
2023-05-10T14:06:04.029Z,5.35
2023-05-10T14:08:33.181Z,5.93
2023-05-10T14:11:02.172Z,5.63
2023-05-10T14:13:31.132Z,5.82
2023-05-10T14:16:02.640Z,4.70
2023-05-10T14:18:31.719Z,5.47
2023-05-10T14:21:00.698Z,5.68
2023-05-10T14:23:30.816Z,5.70
2023-05-10T14:25:59.958Z,4.97
2023-05-10T14:28:29.112Z,5.68
2023-05-10T14:30:58.117Z,6.00
2023-05-10T14:33:27.205Z,6.90
2023-05-10T14:35:59.141Z,7.40
2023-05-10T14:38:28.777Z,7.43
2023-05-10T14:40:57.850Z,6.45
2023-05-10T14:43:27.019Z,7.00
2023-05-10T14:45:56.286Z,6.78
2023-05-10T14:48:25.521Z,6.28
2023-05-10T14:50:54.824Z,6.35
2023-05-10T14:53:23.873Z,6.15
2023-05-10T14:55:52.949Z,6.80
2023-05-10T14:58:21.945Z,6.72
2023-05-10T15:00:51.200Z,5.78
2023-05-10T15:03:20.922Z,7.00
2023-05-10T15:05:50.659Z,6.35
2023-05-10T15:08:19.624Z,5.80
2023-05-10T15:10:49.109Z,6.25
2023-05-10T15:13:18.116Z,5.97
2023-05-10T15:15:47.128Z,6.10
2023-05-10T15:18:16.276Z,5.57
2023-05-10T15:20:45.366Z,6.20
2023-05-10T15:23:14.693Z,6.38
2023-05-10T15:25:43.711Z,7.07
2023-05-10T15:28:12.678Z,6.20
2023-05-10T15:30:41.700Z,6.50
2023-05-10T15:33:10.799Z,6.30
2023-05-10T15:35:41.701Z,7.18
2023-05-10T15:38:11.517Z,7.20
2023-05-10T15:40:40.595Z,6.38
2023-05-10T15:43:09.819Z,6.88
2023-05-10T15:45:38.829Z,6.15
2023-05-10T15:48:08.076Z,5.68
2023-05-10T15:50:37.083Z,6.05
2023-05-10T15:53:06.324Z,5.88
2023-05-10T15:55:36.526Z,6.82
2023-05-10T15:58:05.574Z,6.78
2023-05-10T16:00:34.643Z,7.03
2023-05-10T16:03:03.828Z,6.60
2023-05-10T16:05:34.986Z,7.35
2023-05-10T16:08:04.271Z,6.72
2023-05-10T16:10:36.398Z,6.80
2023-05-10T16:13:05.754Z,7.38
2023-05-10T16:15:35.140Z,6.72
2023-05-10T16:18:04.168Z,5.50
2023-05-10T16:20:34.622Z,5.35
2023-05-10T16:23:08.394Z,5.38
2023-05-10T16:25:37.836Z,5.57
2023-05-10T16:28:06.943Z,5.30
2023-05-10T16:30:36.105Z,5.70
2023-05-10T16:33:05.368Z,5.93
2023-05-10T16:35:34.367Z,5.93
2023-05-10T16:38:03.422Z,5.97
2023-05-10T16:40:32.611Z,4.82
2023-05-10T16:43:01.529Z,5.30
2023-05-10T16:45:33.957Z,6.38
2023-05-10T16:48:02.977Z,5.47
2023-05-10T16:50:32.091Z,3.13
2023-05-10T16:53:01.384Z,3.33
2023-05-10T16:55:30.336Z,2.55
2023-05-10T16:58:01.683Z,1.98
2023-05-10T17:00:31.046Z,2.33
2023-05-10T17:03:00.130Z,1.90
2023-05-10T17:05:29.273Z,1.70
2023-05-10T17:07:58.292Z,1.95
2023-05-10T17:10:27.422Z,1.80
2023-05-10T17:12:56.593Z,2.10
2023-05-10T17:15:25.646Z,2.00
2023-05-10T17:17:54.776Z,2.45
2023-05-10T17:20:23.873Z,2.22
2023-05-10T17:22:53.277Z,1.83
2023-05-10T17:25:22.285Z,2.00
2023-05-10T17:27:51.209Z,1.80
2023-05-10T17:30:25.524Z,1.90
2023-05-10T17:32:57.824Z,2.50
2023-05-10T17:35:27.252Z,2.47
2023-05-10T17:37:56.468Z,2.35
2023-05-10T17:40:25.475Z,2.47
2023-05-10T17:42:54.483Z,2.40
2023-05-10T17:45:23.550Z,2.47
2023-05-10T17:47:52.578Z,2.92
2023-05-10T17:50:21.758Z,2.83
2023-05-10T17:52:50.776Z,2.90
2023-05-10T17:55:19.988Z,2.78
2023-05-10T17:57:51.121Z,3.40
2023-05-10T18:00:20.994Z,3.63
2023-05-10T18:02:50.092Z,3.65
2023-05-10T18:05:19.590Z,3.45
2023-05-10T18:07:48.874Z,3.78
2023-05-10T18:10:17.958Z,4.00
2023-05-10T18:12:47.054Z,4.15
2023-05-10T18:15:16.310Z,5.05
2023-05-10T18:17:45.773Z,3.92
2023-05-10T18:20:14.832Z,4.03
2023-05-10T18:22:44.591Z,3.83
2023-05-10T18:25:13.628Z,4.40
2023-05-10T18:27:42.651Z,3.85
2023-05-10T18:30:13.838Z,3.78
2023-05-10T18:32:43.042Z,4.20
2023-05-10T18:35:13.032Z,4.55
2023-05-10T18:37:42.454Z,5.43
2023-05-10T18:40:13.699Z,5.10
2023-05-10T18:42:43.238Z,4.43
2023-05-10T18:45:12.864Z,4.18
2023-05-10T18:47:41.984Z,4.10
2023-05-10T18:50:11.466Z,3.33
2023-05-10T18:52:40.713Z,3.70
2023-05-10T18:55:10.419Z,4.03
2023-05-10T18:57:42.590Z,3.97
2023-05-10T19:00:13.744Z,3.22
2023-05-10T19:02:42.877Z,3.67
2023-05-10T19:05:12.094Z,4.38
2023-05-10T19:07:44.580Z,3.80
2023-05-10T19:10:14.854Z,4.80
2023-05-10T19:12:43.877Z,4.20
2023-05-10T19:15:13.178Z,4.30
2023-05-10T19:17:44.971Z,5.25
2023-05-10T19:20:16.956Z,4.78
2023-05-10T19:23:02.256Z,4.90
2023-05-10T19:25:36.428Z,5.20
2023-05-10T19:28:05.326Z,5.13
2023-05-10T19:30:34.250Z,5.47
2023-05-10T19:33:06.798Z,4.90
2023-05-10T19:35:37.192Z,5.00
2023-05-10T19:38:06.247Z,5.95
2023-05-10T19:40:35.221Z,5.22
2023-05-10T19:43:04.959Z,5.07
2023-05-10T19:45:38.751Z,4.88
2023-05-10T19:48:08.141Z,5.18
2023-05-10T19:50:37.316Z,5.63
2023-05-10T19:53:06.240Z,5.72
2023-05-10T19:55:36.772Z,5.80
2023-05-10T19:58:07.108Z,5.45
2023-05-10T20:00:36.692Z,5.70
2023-05-10T20:03:09.127Z,5.97
2023-05-10T20:05:38.359Z,5.60
2023-05-10T20:08:07.326Z,5.35
2023-05-10T20:10:36.331Z,5.60
2023-05-10T20:13:05.517Z,5.78
2023-05-10T20:15:34.711Z,5.13
2023-05-10T20:18:04.820Z,5.15
2023-05-10T20:20:33.983Z,5.45
2023-05-10T20:23:02.997Z,5.50
2023-05-10T20:25:32.115Z,6.03
2023-05-10T20:28:01.132Z,6.18
2023-05-10T20:30:30.132Z,5.82
2023-05-10T20:32:59.189Z,5.57
2023-05-10T20:35:28.300Z,5.80
2023-05-10T20:37:57.289Z,5.45
2023-05-10T20:40:26.322Z,5.78
2023-05-10T20:42:55.365Z,5.72
2023-05-10T20:45:24.590Z,6.32
2023-05-10T20:47:54.177Z,6.07
2023-05-10T20:50:23.325Z,6.15
2023-05-10T20:52:53.646Z,6.45
2023-05-10T20:55:23.026Z,5.03
2023-05-10T20:57:52.675Z,5.97
2023-05-10T21:00:22.234Z,5.72
2023-05-10T21:02:51.492Z,5.15
2023-05-10T21:05:20.598Z,6.43
2023-05-10T21:07:50.600Z,6.18
2023-05-10T21:10:20.018Z,6.30
2023-05-10T21:12:49.291Z,6.18
2023-05-10T21:15:18.839Z,6.18
2023-05-10T21:17:47.847Z,6.60
2023-05-10T21:20:17.226Z,6.45
2023-05-10T21:22:46.418Z,7.25
2023-05-10T21:25:15.602Z,6.97
2023-05-10T21:27:44.655Z,6.60
2023-05-10T21:30:13.883Z,6.55
2023-05-10T21:32:42.981Z,6.10
2023-05-10T21:35:12.046Z,6.28
2023-05-10T21:37:41.086Z,7.10
2023-05-10T21:40:10.601Z,6.07
2023-05-10T21:42:39.587Z,7.07
2023-05-10T21:45:09.033Z,6.68
2023-05-10T21:47:38.377Z,6.68
2023-05-10T21:50:07.900Z,6.93
2023-05-10T21:52:37.074Z,7.10
2023-05-10T21:55:06.757Z,5.95
2023-05-10T21:57:38.466Z,7.03
2023-05-10T22:00:08.150Z,6.80
2023-05-10T22:02:37.314Z,6.63
2023-05-10T22:05:06.577Z,6.18
2023-05-10T22:07:35.659Z,5.97
2023-05-10T22:10:05.046Z,5.57
2023-05-10T22:12:34.002Z,5.35
2023-05-10T22:17:34.946Z,6.90
2023-05-10T22:20:04.038Z,5.88
2023-05-10T22:22:32.984Z,5.80
2023-05-10T22:25:02.510Z,6.50
2023-05-10T22:27:31.536Z,6.45
2023-05-10T22:30:00.543Z,6.57
2023-05-10T22:32:29.561Z,5.90
2023-05-10T22:34:58.593Z,5.90
2023-05-10T22:37:28.002Z,5.78
2023-05-10T22:39:56.994Z,5.50
2023-05-10T22:42:25.965Z,4.90
2023-05-10T22:44:55.077Z,5.10
2023-05-10T22:47:24.040Z,5.93
2023-05-10T22:49:53.636Z,5.65
2023-05-10T22:52:22.644Z,5.10
2023-05-10T22:54:51.932Z,5.43
2023-05-10T22:57:20.891Z,4.85
2023-05-10T22:59:50.089Z,4.70
2023-05-10T23:02:19.172Z,4.90
2023-05-10T23:04:48.731Z,4.80
2023-05-10T23:07:17.842Z,5.50
2023-05-10T23:09:47.221Z,5.85
2023-05-10T23:12:16.267Z,5.15
2023-05-10T23:14:47.489Z,4.72
2023-05-10T23:17:16.495Z,5.10
2023-05-10T23:19:45.457Z,6.90
2023-05-10T23:22:14.971Z,5.82
2023-05-10T23:24:43.998Z,5.47
2023-05-10T23:27:13.013Z,5.30
2023-05-10T23:29:42.136Z,6.43
2023-05-10T23:32:11.239Z,4.60
2023-05-10T23:34:40.268Z,5.72
2023-05-10T23:37:09.261Z,5.15
2023-05-10T23:39:38.276Z,6.03
2023-05-10T23:42:07.576Z,5.40
2023-05-10T23:44:36.717Z,6.10
2023-05-10T23:47:05.692Z,5.43
2023-05-10T23:49:34.773Z,5.28
2023-05-10T23:52:03.719Z,6.22
2023-05-10T23:54:32.703Z,5.18
2023-05-10T23:57:02.174Z,4.88
2023-05-10T23:59:31.251Z,5.43
